sensor_id;sensor_type;location;lat;lon;timestamp;P1;durP1;ratioP1;P2;durP2;ratioP2
17024;SDS011;8629;42.496;25.620;2023-04-24T00:01:45;6.50;;;4.83;;
17024;SDS011;8629;42.496;25.620;2023-04-24T00:04:12;5.20;;;4.60;;
17024;SDS011;8629;42.496;25.620;2023-04-24T00:06:43;6.87;;;5.97;;
17024;SDS011;8629;42.496;25.620;2023-04-24T00:09:09;7.13;;;6.00;;
17024;SDS011;8629;42.496;25.620;2023-04-24T00:11:36;6.03;;;4.93;;
17024;SDS011;8629;42.496;25.620;2023-04-24T00:14:03;6.80;;;4.87;;
17024;SDS011;8629;42.496;25.620;2023-04-24T00:16:31;4.40;;;4.00;;
17024;SDS011;8629;42.496;25.620;2023-04-24T00:18:57;5.90;;;4.57;;
17024;SDS011;8629;42.496;25.620;2023-04-24T00:21:25;3.43;;;2.73;;
17024;SDS011;8629;42.496;25.620;2023-04-24T00:23:55;4.13;;;3.83;;
17024;SDS011;8629;42.496;25.620;2023-04-24T00:26:21;4.97;;;3.13;;
17024;SDS011;8629;42.496;25.620;2023-04-24T00:28:49;3.97;;;3.57;;
17024;SDS011;8629;42.496;25.620;2023-04-24T00:31:16;4.53;;;4.03;;
17024;SDS011;8629;42.496;25.620;2023-04-24T00:33:43;5.43;;;4.17;;
17024;SDS011;8629;42.496;25.620;2023-04-24T00:36:10;4.77;;;3.30;;
17024;SDS011;8629;42.496;25.620;2023-04-24T00:38:37;5.43;;;3.47;;
17024;SDS011;8629;42.496;25.620;2023-04-24T00:41:06;3.67;;;3.37;;
17024;SDS011;8629;42.496;25.620;2023-04-24T00:43:33;4.73;;;3.13;;
17024;SDS011;8629;42.496;25.620;2023-04-24T00:46:01;5.00;;;3.10;;
17024;SDS011;8629;42.496;25.620;2023-04-24T00:48:28;4.67;;;3.47;;
17024;SDS011;8629;42.496;25.620;2023-04-24T00:50:55;4.77;;;3.80;;
17024;SDS011;8629;42.496;25.620;2023-04-24T00:53:23;7.30;;;3.67;;
17024;SDS011;8629;42.496;25.620;2023-04-24T00:55:50;4.33;;;3.10;;
17024;SDS011;8629;42.496;25.620;2023-04-24T00:58:19;4.43;;;3.47;;
17024;SDS011;8629;42.496;25.620;2023-04-24T01:00:46;4.50;;;3.63;;
17024;SDS011;8629;42.496;25.620;2023-04-24T01:03:15;7.03;;;3.10;;
17024;SDS011;8629;42.496;25.620;2023-04-24T01:05:43;7.20;;;3.57;;
17024;SDS011;8629;42.496;25.620;2023-04-24T01:08:10;16.27;;;14.43;;
17024;SDS011;8629;42.496;25.620;2023-04-24T01:10:37;87.70;;;74.27;;
17024;SDS011;8629;42.496;25.620;2023-04-24T01:13:05;183.87;;;129.17;;
17024;SDS011;8629;42.496;25.620;2023-04-24T01:15:35;141.27;;;102.90;;
17024;SDS011;8629;42.496;25.620;2023-04-24T01:18:03;54.10;;;41.77;;
17024;SDS011;8629;42.496;25.620;2023-04-24T01:20:31;46.23;;;36.77;;
17024;SDS011;8629;42.496;25.620;2023-04-24T01:22:59;9.07;;;8.17;;
17024;SDS011;8629;42.496;25.620;2023-04-24T01:25:27;6.47;;;4.57;;
17024;SDS011;8629;42.496;25.620;2023-04-24T01:27:54;4.40;;;4.03;;
17024;SDS011;8629;42.496;25.620;2023-04-24T01:30:22;42.70;;;32.37;;
17024;SDS011;8629;42.496;25.620;2023-04-24T01:32:49;13.90;;;11.67;;
17024;SDS011;8629;42.496;25.620;2023-04-24T01:35:16;10.77;;;6.53;;
17024;SDS011;8629;42.496;25.620;2023-04-24T01:37:43;6.57;;;5.37;;
17024;SDS011;8629;42.496;25.620;2023-04-24T01:40:12;8.53;;;4.97;;
17024;SDS011;8629;42.496;25.620;2023-04-24T01:42:40;5.40;;;4.90;;
17024;SDS011;8629;42.496;25.620;2023-04-24T01:45:09;6.63;;;4.77;;
17024;SDS011;8629;42.496;25.620;2023-04-24T01:47:38;4.53;;;4.07;;
17024;SDS011;8629;42.496;25.620;2023-04-24T01:50:05;8.63;;;4.23;;
17024;SDS011;8629;42.496;25.620;2023-04-24T01:52:33;5.30;;;3.87;;
17024;SDS011;8629;42.496;25.620;2023-04-24T01:55:01;4.93;;;4.20;;
17024;SDS011;8629;42.496;25.620;2023-04-24T01:57:30;4.13;;;3.73;;
17024;SDS011;8629;42.496;25.620;2023-04-24T01:59:57;5.43;;;4.53;;
17024;SDS011;8629;42.496;25.620;2023-04-24T02:02:24;7.13;;;4.53;;
17024;SDS011;8629;42.496;25.620;2023-04-24T02:04:52;6.80;;;5.30;;
17024;SDS011;8629;42.496;25.620;2023-04-24T02:07:19;7.40;;;6.70;;
17024;SDS011;8629;42.496;25.620;2023-04-24T02:09:46;6.33;;;5.73;;
17024;SDS011;8629;42.496;25.620;2023-04-24T02:12:13;6.17;;;5.63;;
17024;SDS011;8629;42.496;25.620;2023-04-24T02:14:42;5.43;;;4.93;;
17024;SDS011;8629;42.496;25.620;2023-04-24T02:17:09;5.77;;;4.87;;
17024;SDS011;8629;42.496;25.620;2023-04-24T02:19:38;6.33;;;5.07;;
17024;SDS011;8629;42.496;25.620;2023-04-24T02:22:05;5.50;;;5.00;;
17024;SDS011;8629;42.496;25.620;2023-04-24T02:24:33;6.83;;;4.90;;
17024;SDS011;8629;42.496;25.620;2023-04-24T02:27:00;4.87;;;4.07;;
17024;SDS011;8629;42.496;25.620;2023-04-24T02:29:28;6.97;;;4.67;;
17024;SDS011;8629;42.496;25.620;2023-04-24T02:31:57;5.90;;;4.43;;
17024;SDS011;8629;42.496;25.620;2023-04-24T02:34:24;5.63;;;4.77;;
17024;SDS011;8629;42.496;25.620;2023-04-24T02:36:51;8.63;;;6.07;;
17024;SDS011;8629;42.496;25.620;2023-04-24T02:39:19;13.17;;;5.83;;
17024;SDS011;8629;42.496;25.620;2023-04-24T02:41:46;7.80;;;6.33;;
17024;SDS011;8629;42.496;25.620;2023-04-24T02:44:13;8.50;;;6.43;;
17024;SDS011;8629;42.496;25.620;2023-04-24T02:46:42;5.27;;;4.77;;
17024;SDS011;8629;42.496;25.620;2023-04-24T02:49:11;6.70;;;4.93;;
17024;SDS011;8629;42.496;25.620;2023-04-24T02:51:38;6.53;;;5.27;;
17024;SDS011;8629;42.496;25.620;2023-04-24T02:54:06;8.60;;;5.80;;
17024;SDS011;8629;42.496;25.620;2023-04-24T02:56:34;8.37;;;5.63;;
17024;SDS011;8629;42.496;25.620;2023-04-24T02:59:01;7.40;;;5.33;;
17024;SDS011;8629;42.496;25.620;2023-04-24T03:01:28;7.07;;;5.43;;
17024;SDS011;8629;42.496;25.620;2023-04-24T03:03:55;5.50;;;5.00;;
17024;SDS011;8629;42.496;25.620;2023-04-24T03:06:24;5.87;;;5.27;;
17024;SDS011;8629;42.496;25.620;2023-04-24T03:08:52;6.43;;;4.83;;
17024;SDS011;8629;42.496;25.620;2023-04-24T03:11:19;11.00;;;5.57;;
17024;SDS011;8629;42.496;25.620;2023-04-24T03:13:46;5.77;;;5.17;;
17024;SDS011;8629;42.496;25.620;2023-04-24T03:16:13;7.77;;;4.97;;
17024;SDS011;8629;42.496;25.620;2023-04-24T03:18:40;57.23;;;22.60;;
17024;SDS011;8629;42.496;25.620;2023-04-24T03:21:08;29.00;;;14.90;;
17024;SDS011;8629;42.496;25.620;2023-04-24T03:23:37;58.70;;;25.43;;
17024;SDS011;8629;42.496;25.620;2023-04-24T03:26:04;35.17;;;17.17;;
17024;SDS011;8629;42.496;25.620;2023-04-24T03:28:32;17.80;;;11.83;;
17024;SDS011;8629;42.496;25.620;2023-04-24T03:30:59;11.80;;;9.90;;
17024;SDS011;8629;42.496;25.620;2023-04-24T03:33:27;12.93;;;9.93;;
17024;SDS011;8629;42.496;25.620;2023-04-24T03:35:55;11.63;;;8.40;;
17024;SDS011;8629;42.496;25.620;2023-04-24T03:38:22;93.90;;;36.00;;
17024;SDS011;8629;42.496;25.620;2023-04-24T03:40:51;31.20;;;15.50;;
17024;SDS011;8629;42.496;25.620;2023-04-24T03:43:18;20.07;;;11.27;;
17024;SDS011;8629;42.496;25.620;2023-04-24T03:45:45;13.33;;;8.07;;
17024;SDS011;8629;42.496;25.620;2023-04-24T03:48:13;153.57;;;58.43;;
17024;SDS011;8629;42.496;25.620;2023-04-24T03:50:41;62.90;;;38.47;;
17024;SDS011;8629;42.496;25.620;2023-04-24T03:53:08;130.87;;;54.17;;
17024;SDS011;8629;42.496;25.620;2023-04-24T03:55:35;29.67;;;17.10;;
17024;SDS011;8629;42.496;25.620;2023-04-24T03:58:06;13.60;;;11.13;;
17024;SDS011;8629;42.496;25.620;2023-04-24T04:00:33;12.33;;;9.50;;
17024;SDS011;8629;42.496;25.620;2023-04-24T04:03:02;12.77;;;8.93;;
17024;SDS011;8629;42.496;25.620;2023-04-24T04:05:29;10.20;;;8.27;;
17024;SDS011;8629;42.496;25.620;2023-04-24T04:07:56;8.60;;;7.73;;
17024;SDS011;8629;42.496;25.620;2023-04-24T04:10:23;33.53;;;16.77;;
17024;SDS011;8629;42.496;25.620;2023-04-24T04:12:51;21.87;;;14.60;;
17024;SDS011;8629;42.496;25.620;2023-04-24T04:15:19;16.43;;;12.57;;
17024;SDS011;8629;42.496;25.620;2023-04-24T04:17:46;18.63;;;13.50;;
17024;SDS011;8629;42.496;25.620;2023-04-24T04:20:13;20.07;;;13.73;;
17024;SDS011;8629;42.496;25.620;2023-04-24T04:22:40;15.20;;;11.20;;
17024;SDS011;8629;42.496;25.620;2023-04-24T04:25:07;19.63;;;12.10;;
17024;SDS011;8629;42.496;25.620;2023-04-24T04:27:34;13.47;;;10.23;;
17024;SDS011;8629;42.496;25.620;2023-04-24T04:30:01;11.07;;;9.97;;
17024;SDS011;8629;42.496;25.620;2023-04-24T04:32:31;10.20;;;9.10;;
17024;SDS011;8629;42.496;25.620;2023-04-24T04:34:59;12.07;;;10.00;;
17024;SDS011;8629;42.496;25.620;2023-04-24T04:37:28;12.50;;;8.63;;
17024;SDS011;8629;42.496;25.620;2023-04-24T04:39:55;8.30;;;7.50;;
17024;SDS011;8629;42.496;25.620;2023-04-24T04:42:23;11.63;;;9.43;;
17024;SDS011;8629;42.496;25.620;2023-04-24T04:44:50;13.17;;;9.70;;
17024;SDS011;8629;42.496;25.620;2023-04-24T04:47:18;9.63;;;7.90;;
17024;SDS011;8629;42.496;25.620;2023-04-24T04:49:49;9.33;;;7.60;;
17024;SDS011;8629;42.496;25.620;2023-04-24T04:52:16;7.77;;;7.00;;
17024;SDS011;8629;42.496;25.620;2023-04-24T04:54:43;11.67;;;8.37;;
17024;SDS011;8629;42.496;25.620;2023-04-24T04:57:11;10.60;;;7.10;;
17024;SDS011;8629;42.496;25.620;2023-04-24T04:59:38;9.53;;;7.80;;
17024;SDS011;8629;42.496;25.620;2023-04-24T05:02:06;10.90;;;9.50;;
17024;SDS011;8629;42.496;25.620;2023-04-24T05:04:32;8.80;;;7.90;;
17024;SDS011;8629;42.496;25.620;2023-04-24T05:07:01;9.50;;;7.37;;
17024;SDS011;8629;42.496;25.620;2023-04-24T05:09:28;8.47;;;6.33;;
17024;SDS011;8629;42.496;25.620;2023-04-24T05:11:54;10.50;;;8.47;;
17024;SDS011;8629;42.496;25.620;2023-04-24T05:14:21;13.17;;;9.50;;
17024;SDS011;8629;42.496;25.620;2023-04-24T05:16:48;13.40;;;9.90;;
17024;SDS011;8629;42.496;25.620;2023-04-24T05:19:16;17.97;;;11.23;;
17024;SDS011;8629;42.496;25.620;2023-04-24T05:21:42;13.67;;;10.60;;
17024;SDS011;8629;42.496;25.620;2023-04-24T05:24:11;11.47;;;9.40;;
17024;SDS011;8629;42.496;25.620;2023-04-24T05:26:37;10.83;;;8.67;;
17024;SDS011;8629;42.496;25.620;2023-04-24T05:29:04;15.50;;;10.20;;
17024;SDS011;8629;42.496;25.620;2023-04-24T05:31:31;10.97;;;9.93;;
17024;SDS011;8629;42.496;25.620;2023-04-24T05:33:58;10.70;;;9.27;;
17024;SDS011;8629;42.496;25.620;2023-04-24T05:36:25;7.60;;;6.90;;
17024;SDS011;8629;42.496;25.620;2023-04-24T05:38:52;9.63;;;6.40;;
17024;SDS011;8629;42.496;25.620;2023-04-24T05:41:20;7.30;;;6.57;;
17024;SDS011;8629;42.496;25.620;2023-04-24T05:43:47;8.00;;;5.83;;
17024;SDS011;8629;42.496;25.620;2023-04-24T05:46:14;7.37;;;6.67;;
17024;SDS011;8629;42.496;25.620;2023-04-24T05:48:41;11.50;;;7.43;;
17024;SDS011;8629;42.496;25.620;2023-04-24T05:51:08;7.17;;;6.37;;
17024;SDS011;8629;42.496;25.620;2023-04-24T05:53:35;5.50;;;5.00;;
17024;SDS011;8629;42.496;25.620;2023-04-24T05:56:02;6.13;;;5.17;;
17024;SDS011;8629;42.496;25.620;2023-04-24T05:58:30;8.37;;;5.10;;
17024;SDS011;8629;42.496;25.620;2023-04-24T06:00:57;5.37;;;4.63;;
17024;SDS011;8629;42.496;25.620;2023-04-24T06:03:26;5.83;;;4.43;;
17024;SDS011;8629;42.496;25.620;2023-04-24T06:05:53;7.67;;;4.43;;
17024;SDS011;8629;42.496;25.620;2023-04-24T06:08:20;5.07;;;4.17;;
17024;SDS011;8629;42.496;25.620;2023-04-24T06:10:47;8.83;;;4.70;;
17024;SDS011;8629;42.496;25.620;2023-04-24T06:13:14;5.70;;;4.80;;
17024;SDS011;8629;42.496;25.620;2023-04-24T06:15:42;7.30;;;4.10;;
17024;SDS011;8629;42.496;25.620;2023-04-24T06:18:09;6.37;;;3.83;;
17024;SDS011;8629;42.496;25.620;2023-04-24T06:20:37;6.37;;;4.10;;
17024;SDS011;8629;42.496;25.620;2023-04-24T06:23:04;5.90;;;5.23;;
17024;SDS011;8629;42.496;25.620;2023-04-24T06:25:31;4.27;;;3.43;;
17024;SDS011;8629;42.496;25.620;2023-04-24T06:27:58;6.07;;;3.83;;
17024;SDS011;8629;42.496;25.620;2023-04-24T06:30:25;5.77;;;4.00;;
17024;SDS011;8629;42.496;25.620;2023-04-24T06:32:54;4.27;;;3.73;;
17024;SDS011;8629;42.496;25.620;2023-04-24T06:35:21;4.87;;;4.10;;
17024;SDS011;8629;42.496;25.620;2023-04-24T06:37:47;4.13;;;3.77;;
17024;SDS011;8629;42.496;25.620;2023-04-24T06:40:14;4.07;;;3.60;;
17024;SDS011;8629;42.496;25.620;2023-04-24T06:42:43;4.20;;;3.53;;
17024;SDS011;8629;42.496;25.620;2023-04-24T06:45:10;4.23;;;3.43;;
17024;SDS011;8629;42.496;25.620;2023-04-24T06:47:37;5.67;;;3.93;;
17024;SDS011;8629;42.496;25.620;2023-04-24T06:50:06;8.97;;;3.97;;
17024;SDS011;8629;42.496;25.620;2023-04-24T06:52:34;4.53;;;3.17;;
17024;SDS011;8629;42.496;25.620;2023-04-24T06:55:04;6.30;;;3.33;;
17024;SDS011;8629;42.496;25.620;2023-04-24T06:57:31;5.47;;;3.70;;
17024;SDS011;8629;42.496;25.620;2023-04-24T06:59:58;9.37;;;5.03;;
17024;SDS011;8629;42.496;25.620;2023-04-24T07:02:25;8.43;;;3.77;;
17024;SDS011;8629;42.496;25.620;2023-04-24T07:04:52;4.17;;;3.60;;
17024;SDS011;8629;42.496;25.620;2023-04-24T07:07:20;4.37;;;3.97;;
17024;SDS011;8629;42.496;25.620;2023-04-24T07:09:48;4.47;;;3.97;;
17024;SDS011;8629;42.496;25.620;2023-04-24T07:12:15;4.97;;;3.23;;
17024;SDS011;8629;42.496;25.620;2023-04-24T07:14:45;7.00;;;4.70;;
17024;SDS011;8629;42.496;25.620;2023-04-24T07:17:12;6.30;;;3.90;;
17024;SDS011;8629;42.496;25.620;2023-04-24T07:19:39;8.03;;;3.57;;
17024;SDS011;8629;42.496;25.620;2023-04-24T07:22:09;4.03;;;3.57;;
17024;SDS011;8629;42.496;25.620;2023-04-24T07:24:43;9.63;;;4.37;;
17024;SDS011;8629;42.496;25.620;2023-04-24T07:27:10;6.47;;;3.80;;
17024;SDS011;8629;42.496;25.620;2023-04-24T07:29:36;6.53;;;4.53;;
17024;SDS011;8629;42.496;25.620;2023-04-24T07:32:05;4.67;;;3.60;;
17024;SDS011;8629;42.496;25.620;2023-04-24T07:34:32;6.10;;;4.17;;
17024;SDS011;8629;42.496;25.620;2023-04-24T07:36:59;3.87;;;3.43;;
17024;SDS011;8629;42.496;25.620;2023-04-24T07:39:26;3.87;;;3.47;;
17024;SDS011;8629;42.496;25.620;2023-04-24T07:41:55;6.33;;;4.07;;
17024;SDS011;8629;42.496;25.620;2023-04-24T07:44:23;4.33;;;3.57;;
17024;SDS011;8629;42.496;25.620;2023-04-24T07:46:50;4.17;;;3.87;;
17024;SDS011;8629;42.496;25.620;2023-04-24T07:49:17;4.67;;;4.13;;
17024;SDS011;8629;42.496;25.620;2023-04-24T07:51:44;5.70;;;3.20;;
17024;SDS011;8629;42.496;25.620;2023-04-24T07:54:11;6.97;;;4.10;;
17024;SDS011;8629;42.496;25.620;2023-04-24T07:56:38;4.67;;;3.60;;
17024;SDS011;8629;42.496;25.620;2023-04-24T07:59:06;3.70;;;3.33;;
17024;SDS011;8629;42.496;25.620;2023-04-24T08:01:34;3.80;;;3.50;;
17024;SDS011;8629;42.496;25.620;2023-04-24T08:04:01;4.83;;;3.50;;
17024;SDS011;8629;42.496;25.620;2023-04-24T08:06:28;4.80;;;3.50;;
17024;SDS011;8629;42.496;25.620;2023-04-24T08:08:57;5.03;;;3.97;;
17024;SDS011;8629;42.496;25.620;2023-04-24T08:11:24;3.77;;;3.43;;
17024;SDS011;8629;42.496;25.620;2023-04-24T08:13:52;4.33;;;3.90;;
17024;SDS011;8629;42.496;25.620;2023-04-24T08:16:21;7.07;;;4.17;;
17024;SDS011;8629;42.496;25.620;2023-04-24T08:18:48;5.07;;;3.87;;
17024;SDS011;8629;42.496;25.620;2023-04-24T08:21:15;3.73;;;3.40;;
17024;SDS011;8629;42.496;25.620;2023-04-24T08:23:43;4.67;;;3.73;;
17024;SDS011;8629;42.496;25.620;2023-04-24T08:26:10;4.93;;;4.03;;
17024;SDS011;8629;42.496;25.620;2023-04-24T08:28:37;3.90;;;3.60;;
17024;SDS011;8629;42.496;25.620;2023-04-24T08:31:04;8.00;;;3.70;;
17024;SDS011;8629;42.496;25.620;2023-04-24T08:33:32;4.33;;;3.90;;
17024;SDS011;8629;42.496;25.620;2023-04-24T08:36:00;5.13;;;3.63;;
17024;SDS011;8629;42.496;25.620;2023-04-24T08:38:28;5.40;;;3.77;;
17024;SDS011;8629;42.496;25.620;2023-04-24T08:40:55;5.27;;;3.30;;
17024;SDS011;8629;42.496;25.620;2023-04-24T08:43:24;8.93;;;4.80;;
17024;SDS011;8629;42.496;25.620;2023-04-24T08:45:51;6.07;;;4.20;;
17024;SDS011;8629;42.496;25.620;2023-04-24T08:48:18;3.97;;;3.67;;
17024;SDS011;8629;42.496;25.620;2023-04-24T08:50:46;7.30;;;4.00;;
17024;SDS011;8629;42.496;25.620;2023-04-24T08:53:14;7.90;;;4.50;;
17024;SDS011;8629;42.496;25.620;2023-04-24T08:55:41;6.43;;;3.47;;
17024;SDS011;8629;42.496;25.620;2023-04-24T08:58:10;4.40;;;4.00;;
17024;SDS011;8629;42.496;25.620;2023-04-24T09:00:37;9.17;;;4.13;;
17024;SDS011;8629;42.496;25.620;2023-04-24T09:03:09;5.67;;;4.63;;
17024;SDS011;8629;42.496;25.620;2023-04-24T09:05:36;7.03;;;3.93;;
17024;SDS011;8629;42.496;25.620;2023-04-24T09:08:04;3.73;;;3.30;;
17024;SDS011;8629;42.496;25.620;2023-04-24T09:10:31;7.33;;;3.40;;
17024;SDS011;8629;42.496;25.620;2023-04-24T09:13:01;8.13;;;5.00;;
17024;SDS011;8629;42.496;25.620;2023-04-24T09:15:27;5.30;;;4.17;;
17024;SDS011;8629;42.496;25.620;2023-04-24T09:17:54;7.50;;;3.70;;
17024;SDS011;8629;42.496;25.620;2023-04-24T09:20:21;4.67;;;3.93;;
17024;SDS011;8629;42.496;25.620;2023-04-24T09:22:52;5.20;;;4.43;;
17024;SDS011;8629;42.496;25.620;2023-04-24T09:25:21;8.53;;;4.30;;
17024;SDS011;8629;42.496;25.620;2023-04-24T09:27:48;5.13;;;3.53;;
17024;SDS011;8629;42.496;25.620;2023-04-24T09:30:16;5.03;;;3.97;;
17024;SDS011;8629;42.496;25.620;2023-04-24T09:32:47;6.17;;;4.53;;
17024;SDS011;8629;42.496;25.620;2023-04-24T09:35:15;5.40;;;4.17;;
17024;SDS011;8629;42.496;25.620;2023-04-24T09:37:42;8.07;;;4.40;;
17024;SDS011;8629;42.496;25.620;2023-04-24T09:40:11;4.33;;;3.97;;
17024;SDS011;8629;42.496;25.620;2023-04-24T09:42:40;3.77;;;3.43;;
17024;SDS011;8629;42.496;25.620;2023-04-24T09:45:10;5.67;;;4.27;;
17024;SDS011;8629;42.496;25.620;2023-04-24T09:47:37;7.83;;;4.30;;
17024;SDS011;8629;42.496;25.620;2023-04-24T09:50:11;4.53;;;4.13;;
17024;SDS011;8629;42.496;25.620;2023-04-24T09:52:39;4.37;;;3.87;;
17024;SDS011;8629;42.496;25.620;2023-04-24T09:55:11;6.40;;;3.70;;
17024;SDS011;8629;42.496;25.620;2023-04-24T09:57:47;4.70;;;4.30;;
17024;SDS011;8629;42.496;25.620;2023-04-24T10:00:18;6.13;;;4.73;;
17024;SDS011;8629;42.496;25.620;2023-04-24T10:02:51;4.83;;;4.23;;
17024;SDS011;8629;42.496;25.620;2023-04-24T10:05:22;6.37;;;4.10;;
17024;SDS011;8629;42.496;25.620;2023-04-24T10:07:50;9.90;;;4.23;;
17024;SDS011;8629;42.496;25.620;2023-04-24T10:10:16;4.93;;;4.53;;
17024;SDS011;8629;42.496;25.620;2023-04-24T10:12:43;6.33;;;4.30;;
17024;SDS011;8629;42.496;25.620;2023-04-24T10:15:12;4.20;;;3.90;;
17024;SDS011;8629;42.496;25.620;2023-04-24T10:17:39;4.47;;;4.07;;
17024;SDS011;8629;42.496;25.620;2023-04-24T10:20:07;4.23;;;3.93;;
17024;SDS011;8629;42.496;25.620;2023-04-24T10:22:34;5.33;;;4.03;;
17024;SDS011;8629;42.496;25.620;2023-04-24T10:25:03;5.33;;;4.13;;
17024;SDS011;8629;42.496;25.620;2023-04-24T10:27:31;5.90;;;4.63;;
17024;SDS011;8629;42.496;25.620;2023-04-24T10:29:58;6.13;;;3.70;;
17024;SDS011;8629;42.496;25.620;2023-04-24T10:32:28;5.27;;;4.27;;
17024;SDS011;8629;42.496;25.620;2023-04-24T10:34:55;4.97;;;3.47;;
17024;SDS011;8629;42.496;25.620;2023-04-24T10:37:22;6.70;;;4.67;;
17024;SDS011;8629;42.496;25.620;2023-04-24T10:39:49;4.60;;;4.20;;
17024;SDS011;8629;42.496;25.620;2023-04-24T10:42:19;6.77;;;4.93;;
17024;SDS011;8629;42.496;25.620;2023-04-24T10:44:47;5.53;;;4.87;;
17024;SDS011;8629;42.496;25.620;2023-04-24T10:47:14;4.40;;;4.00;;
17024;SDS011;8629;42.496;25.620;2023-04-24T10:49:43;7.37;;;4.97;;
17024;SDS011;8629;42.496;25.620;2023-04-24T10:52:10;7.80;;;5.43;;
17024;SDS011;8629;42.496;25.620;2023-04-24T10:54:41;7.73;;;4.43;;
17024;SDS011;8629;42.496;25.620;2023-04-24T10:57:27;5.70;;;4.80;;
17024;SDS011;8629;42.496;25.620;2023-04-24T11:00:15;5.97;;;5.00;;
17024;SDS011;8629;42.496;25.620;2023-04-24T11:02:45;5.97;;;5.40;;
17024;SDS011;8629;42.496;25.620;2023-04-24T11:05:16;6.20;;;4.50;;
17024;SDS011;8629;42.496;25.620;2023-04-24T11:10:38;4.60;;;4.20;;
17024;SDS011;8629;42.496;25.620;2023-04-24T11:13:06;5.17;;;4.67;;
17024;SDS011;8629;42.496;25.620;2023-04-24T11:15:33;5.00;;;4.43;;
17024;SDS011;8629;42.496;25.620;2023-04-24T11:18:00;5.33;;;3.83;;
17024;SDS011;8629;42.496;25.620;2023-04-24T11:20:28;4.20;;;3.57;;
17024;SDS011;8629;42.496;25.620;2023-04-24T11:22:55;4.93;;;4.07;;
17024;SDS011;8629;42.496;25.620;2023-04-24T11:25:30;6.67;;;4.37;;
17024;SDS011;8629;42.496;25.620;2023-04-24T11:28:02;7.67;;;5.40;;
17024;SDS011;8629;42.496;25.620;2023-04-24T11:30:30;9.57;;;7.13;;
17024;SDS011;8629;42.496;25.620;2023-04-24T11:33:01;6.17;;;5.67;;
17024;SDS011;8629;42.496;25.620;2023-04-24T11:35:35;7.07;;;6.23;;
17024;SDS011;8629;42.496;25.620;2023-04-24T11:38:06;5.63;;;4.97;;
17024;SDS011;8629;42.496;25.620;2023-04-24T11:40:33;8.20;;;5.27;;
17024;SDS011;8629;42.496;25.620;2023-04-24T11:43:00;5.90;;;5.40;;
17024;SDS011;8629;42.496;25.620;2023-04-24T11:45:27;5.93;;;5.27;;
17024;SDS011;8629;42.496;25.620;2023-04-24T11:47:55;7.23;;;5.30;;
17024;SDS011;8629;42.496;25.620;2023-04-24T11:50:22;5.37;;;4.83;;
17024;SDS011;8629;42.496;25.620;2023-04-24T11:52:52;7.33;;;6.17;;
17024;SDS011;8629;42.496;25.620;2023-04-24T11:55:24;5.63;;;4.57;;
17024;SDS011;8629;42.496;25.620;2023-04-24T11:57:52;5.47;;;4.53;;
17024;SDS011;8629;42.496;25.620;2023-04-24T12:00:21;6.77;;;5.23;;
17024;SDS011;8629;42.496;25.620;2023-04-24T12:02:49;5.77;;;5.07;;
17024;SDS011;8629;42.496;25.620;2023-04-24T12:05:19;5.20;;;4.70;;
17024;SDS011;8629;42.496;25.620;2023-04-24T12:07:46;5.30;;;4.80;;
17024;SDS011;8629;42.496;25.620;2023-04-24T12:10:21;5.63;;;5.13;;
17024;SDS011;8629;42.496;25.620;2023-04-24T12:12:48;5.77;;;5.27;;
17024;SDS011;8629;42.496;25.620;2023-04-24T12:15:17;22.07;;;19.67;;
17024;SDS011;8629;42.496;25.620;2023-04-24T12:17:44;82.33;;;51.07;;
17024;SDS011;8629;42.496;25.620;2023-04-24T12:20:11;31.17;;;26.90;;
17024;SDS011;8629;42.496;25.620;2023-04-24T12:22:45;8.53;;;7.57;;
17024;SDS011;8629;42.496;25.620;2023-04-24T12:25:13;8.50;;;6.90;;
17024;SDS011;8629;42.496;25.620;2023-04-24T12:27:42;6.70;;;6.00;;
17024;SDS011;8629;42.496;25.620;2023-04-24T12:30:10;15.53;;;11.60;;
17024;SDS011;8629;42.496;25.620;2023-04-24T12:32:40;7.63;;;6.57;;
17024;SDS011;8629;42.496;25.620;2023-04-24T12:35:10;17.67;;;14.20;;
17024;SDS011;8629;42.496;25.620;2023-04-24T12:37:37;11.23;;;6.83;;
17024;SDS011;8629;42.496;25.620;2023-04-24T12:40:05;8.77;;;5.93;;
17024;SDS011;8629;42.496;25.620;2023-04-24T12:42:34;6.63;;;6.03;;
17024;SDS011;8629;42.496;25.620;2023-04-24T12:45:10;8.07;;;7.37;;
17024;SDS011;8629;42.496;25.620;2023-04-24T12:47:38;8.43;;;7.43;;
17024;SDS011;8629;42.496;25.620;2023-04-24T12:50:13;5.87;;;5.37;;
17024;SDS011;8629;42.496;25.620;2023-04-24T12:52:42;5.10;;;4.70;;
17024;SDS011;8629;42.496;25.620;2023-04-24T12:55:10;5.33;;;4.83;;
17024;SDS011;8629;42.496;25.620;2023-04-24T12:57:38;8.73;;;5.90;;
17024;SDS011;8629;42.496;25.620;2023-04-24T13:00:07;6.57;;;5.97;;
17024;SDS011;8629;42.496;25.620;2023-04-24T13:02:37;5.53;;;4.70;;
17024;SDS011;8629;42.496;25.620;2023-04-24T13:05:05;6.87;;;6.10;;
17024;SDS011;8629;42.496;25.620;2023-04-24T13:07:32;8.20;;;7.10;;
17024;SDS011;8629;42.496;25.620;2023-04-24T13:09:59;7.17;;;6.43;;
17024;SDS011;8629;42.496;25.620;2023-04-24T13:12:26;7.83;;;6.80;;
17024;SDS011;8629;42.496;25.620;2023-04-24T13:14:54;6.43;;;5.07;;
17024;SDS011;8629;42.496;25.620;2023-04-24T13:17:22;7.07;;;6.37;;
17024;SDS011;8629;42.496;25.620;2023-04-24T13:19:50;8.07;;;5.47;;
17024;SDS011;8629;42.496;25.620;2023-04-24T13:22:17;5.23;;;4.83;;
17024;SDS011;8629;42.496;25.620;2023-04-24T13:24:45;11.37;;;8.37;;
17024;SDS011;8629;42.496;25.620;2023-04-24T13:27:13;7.13;;;6.53;;
17024;SDS011;8629;42.496;25.620;2023-04-24T13:29:40;9.17;;;7.80;;
17024;SDS011;8629;42.496;25.620;2023-04-24T13:32:07;5.67;;;5.17;;
17024;SDS011;8629;42.496;25.620;2023-04-24T13:34:36;11.40;;;10.27;;
17024;SDS011;8629;42.496;25.620;2023-04-24T13:37:03;9.43;;;8.43;;
17024;SDS011;8629;42.496;25.620;2023-04-24T13:39:30;12.43;;;9.47;;
17024;SDS011;8629;42.496;25.620;2023-04-24T13:41:57;9.87;;;6.87;;
17024;SDS011;8629;42.496;25.620;2023-04-24T13:44:24;12.10;;;10.63;;
17024;SDS011;8629;42.496;25.620;2023-04-24T13:46:52;10.50;;;8.10;;
17024;SDS011;8629;42.496;25.620;2023-04-24T13:49:22;9.70;;;8.73;;
17024;SDS011;8629;42.496;25.620;2023-04-24T13:51:51;8.90;;;7.20;;
17024;SDS011;8629;42.496;25.620;2023-04-24T13:54:18;7.03;;;5.03;;
17024;SDS011;8629;42.496;25.620;2023-04-24T13:56:45;6.10;;;5.50;;
17024;SDS011;8629;42.496;25.620;2023-04-24T13:59:12;6.53;;;5.63;;
17024;SDS011;8629;42.496;25.620;2023-04-24T14:01:39;7.37;;;6.67;;
17024;SDS011;8629;42.496;25.620;2023-04-24T14:07:29;6.97;;;6.03;;
17024;SDS011;8629;42.496;25.620;2023-04-24T14:09:56;9.43;;;4.93;;
17024;SDS011;8629;42.496;25.620;2023-04-24T14:12:23;5.10;;;4.70;;
17024;SDS011;8629;42.496;25.620;2023-04-24T14:14:50;5.47;;;5.03;;
17024;SDS011;8629;42.496;25.620;2023-04-24T14:17:20;8.43;;;6.83;;
17024;SDS011;8629;42.496;25.620;2023-04-24T14:23:10;9.97;;;8.90;;
17024;SDS011;8629;42.496;25.620;2023-04-24T14:25:37;9.63;;;7.00;;
17024;SDS011;8629;42.496;25.620;2023-04-24T14:28:12;5.07;;;4.57;;
17024;SDS011;8629;42.496;25.620;2023-04-24T14:33:19;10.67;;;7.27;;
17024;SDS011;8629;42.496;25.620;2023-04-24T14:35:47;6.77;;;6.07;;
17024;SDS011;8629;42.496;25.620;2023-04-24T14:38:16;6.67;;;4.03;;
17024;SDS011;8629;42.496;25.620;2023-04-24T14:40:43;3.97;;;3.67;;
17024;SDS011;8629;42.496;25.620;2023-04-24T14:43:10;5.07;;;4.50;;
17024;SDS011;8629;42.496;25.620;2023-04-24T14:45:37;5.20;;;4.70;;
17024;SDS011;8629;42.496;25.620;2023-04-24T14:48:07;10.70;;;6.53;;
17024;SDS011;8629;42.496;25.620;2023-04-24T14:50:39;6.20;;;4.70;;
17024;SDS011;8629;42.496;25.620;2023-04-24T14:53:06;14.73;;;11.47;;
17024;SDS011;8629;42.496;25.620;2023-04-24T14:55:37;10.77;;;9.67;;
17024;SDS011;8629;42.496;25.620;2023-04-24T14:58:10;6.33;;;5.73;;
17024;SDS011;8629;42.496;25.620;2023-04-24T15:00:37;17.50;;;14.20;;